KHQI

High Island 376

High Island 376, Texas, USA
METAR KHQI 141315Z AUTO VRB06KT 10SM CLR 29/24 A3000 RMK A01
Observed Flight Rules
Aug-14 @ 13:15 UTC (26 minutes ago) Visual Flight Rules
Wind Visibility Clouds
Variable at 6 knots 10 miles
  • Clear skies
Temperatures Readings
Current 29°C / 84°F
Dewpoint 24°C / 75°F
Humidity 74%
Altimeter 30" Hg
Pressure 1016 hPa
Elevation 26
METAR KHQI 141315Z AUTO VRB06KT 10SM CLR 29/24 A3000 RMK A01
Observed Flight Rules
Aug-14 @ 13:15 UTC
(26 minutes ago)
VFR
Wind Visibility
Variable at 6 knots 10 miles
Clouds
  • Clear skies
Temperature Dewpoint
29°C / 84°F 24°C / 75°F
Humidity Altimeter Pressure
74% 30" Hg 1016 hPa